Aeroporto :
LOGIN :

Iscrizione | Disclaimer

   EN    FR    IT 

 










Sommario :    VFR   VFR Marginale   IFR   IFR Intensivo   IFR Molto Intensivo
Visibilità : 
Base nubi : 
>= 8 km
>= 3000ft
5 / 8 km
1000 / 3000 ft
1500m / 5 km
500 / 1000 ft
800 / 1500m
200 / 500 ft
< 800m
< 200 ft
Simboli :   Temporali  Nebbia  Neve Forte  Precipitazioni Forti  Vento > 20 kt
SIGMETs :   Varie  Temporali  Ghiacco  Turbolenza  Onda orograficha  Ceneri Vulcaniche






- Altitudine del aeroporto : 16 ft
- Codice IATA : LPX


EVLA - Liepaja

ULTIMO METAR :
  • 062020Z AUTO 22018KT 9999 OVC005/// 07/07 Q0999

METARs OBSOLETI :
  • 061950Z AUTO 23018KT 6000 BR OVC005/// 08/08 Q0999
  • 061920Z AUTO 23019KT 7000 OVC005/// 08/08 Q0998
  • 061850Z AUTO 23021KT 9999 OVC007/// 08/08 Q0998
  • 061820Z AUTO 23021KT 9999 OVC007/// 08/08 Q0998
  • 061750Z AUTO 23023KT 9999 OVC007/// 08/08 Q0998

TAF TAF EVLA
Valido dal 06 a 21 ore il 07 a 21 ore UTC


062003Z 0621/0721 22018KT 6000 OVC005
TEMPO 0621/0709 4000 -RA BKN004
TEMPO 0709/0721 23020G30KT
BECMG 0715/0717 BKN010 OVC015



MetMap, La meteo Aeronautica in un colpo d'occhio ! - Copyright ORBIFLY Dicembre 2007 - Disclaimer

ORBIFLY MET'MAP TEAM :

Programmazione e sviluppo : Alexandra Zaïnal
Concezione : Baudouin d'Aumeries
Aiuto per la programmazione : Marc-Olivier Méhu
Supporto tecnico e logistico : Manuel Goepfert
Aiuto per la traduzione : Arnaldo La Scala

Contatto : metmap@orbifly.com




FONTI E CREDITI :

   NOAA